Time;durP1;ratioP1;P1;durP2;ratioP2;P2;SDS_P1;SDS_P2;PMS_P1;PMS_P2;Temp;Humidity;BMP_temperature;BMP_pressure;BME280_temperature;BME280_humidity;BME280_pressure;Samples;Min_cycle;Max_cycle;Signal;HPM_P1;HPM_P2
2023/08/01 00:01:22;;;;;;;;;;;;;;;15.72;100.00;99875.56;5093361;28;19924;-74
2023/08/01 00:03:47;;;;;;;;;;;;;;;15.68;100.00;99872.19;5093114;28;19916;-75
2023/08/01 00:06:13;;;;;;;;;;;;;;;15.70;100.00;99872.09;5093192;28;19927;-74
2023/08/01 00:08:38;;;;;;;;;;;;;;;15.71;100.00;99859.66;5091529;28;20367;-74
2023/08/01 00:11:04;;;;;;;;;;;;;;;15.69;100.00;99852.56;5090855;28;19968;-74
2023/08/01 00:13:29;;;;;;;;;;;;;;;15.69;100.00;99852.56;5074720;28;20097;-74
2023/08/01 00:15:54;;;;;;;;;;;;;;;15.68;100.00;99850.84;5091341;28;19924;-74
2023/08/01 00:18:20;;;;;;;;;;;;;;;15.67;100.00;99848.25;5093258;28;20536;-74
2023/08/01 00:20:45;;;;;;;;;;;;;;;15.67;100.00;99840.22;5091531;28;20421;-74
2023/08/01 00:23:11;;;;;;;;;;;;;;;15.64;100.00;99838.59;5091571;28;20308;-74
2023/08/01 00:25:36;;;;;;;;;;;;;;;15.68;100.00;99848.16;5091341;28;20510;-75
2023/08/01 00:28:01;;;;;;;;;;;;;;;15.66;100.00;99842.06;5092707;28;19926;-74
2023/08/01 00:30:27;;;;;;;;;;;;;;;15.65;100.00;99848.34;5091339;28;19927;-75
2023/08/01 00:32:52;;;;;;;;;;;;;;;15.61;100.00;99846.81;5061649;28;20007;-74
2023/08/01 00:35:17;;;;;;;;;;;;;;;15.63;100.00;99836.03;5084476;28;19928;-75
2023/08/01 00:37:43;;;;;;;;;;;;;;;15.60;100.00;99833.53;5091632;28;19973;-75
2023/08/01 00:40:08;;;;;;;;;;;;;;;15.61;100.00;99832.59;5091838;28;20060;-74
2023/08/01 00:42:35;;;;;;;;;;;;;;;15.57;100.00;99820.38;5090808;28;19966;-75
2023/08/01 00:45:01;;;;;;;;;;;;;;;15.57;100.00;99828.38;5092487;28;19942;-75
2023/08/01 00:47:26;;;;;;;;;;;;;;;15.57;100.00;99831.06;5090703;28;19950;-74
2023/08/01 00:49:52;;;;;;;;;;;;;;;15.55;100.00;99825.78;5091875;28;19931;-74
2023/08/01 00:52:18;;;;;;;;;;;;;;;15.54;100.00;99824.09;5061345;28;20367;-74
2023/08/01 00:54:43;;;;;;;;;;;;;;;15.52;100.00;99827.81;5090847;28;19974;-74
2023/08/01 00:57:09;;;;;;;;;;;;;;;15.53;100.00;99832.16;5077781;28;20355;-74
2023/08/01 00:59:35;;;;;;;;;;;;;;;15.51;100.00;99829.63;5091862;28;20297;-74
2023/08/01 01:02:01;;;;;;;;;;;;;;;15.49;100.00;99829.69;5092177;28;19920;-75
2023/08/01 01:04:26;;;;;;;;;;;;;;;15.50;100.00;99827.88;5090646;28;19943;-75
2023/08/01 01:06:57;;;;;;;;;;;;;;;15.48;100.00;99824.47;5090465;28;19932;-74
2023/08/01 01:09:22;;;;;;;;;;;;;;;15.46;100.00;99832.53;5077967;28;19931;-74
2023/08/01 01:11:47;;;;;;;;;;;;;;;15.47;100.00;99836.06;5091938;28;19920;-74
2023/08/01 01:14:13;;;;;;;;;;;;;;;15.41;100.00;99826.63;5091866;28;19985;-74
2023/08/01 01:16:38;;;;;;;;;;;;;;;15.37;100.00;99825.06;5091921;28;20276;-75
2023/08/01 01:19:06;;;;;;;;;;;;;;;15.38;100.00;99820.59;5090778;28;19970;-74
2023/08/01 01:21:33;;;;;;;;;;;;;;;15.36;100.00;99827.84;5090280;28;20437;-75
2023/08/01 01:23:59;;;;;;;;;;;;;;;15.35;100.00;99818.94;5092056;28;19916;-74
2023/08/01 01:26:25;;;;;;;;;;;;;;;15.26;100.00;99823.03;5090070;28;19916;-75
2023/08/01 01:28:51;;;;;;;;;;;;;;;15.27;100.00;99818.53;5091699;28;20531;-75
2023/08/01 01:31:17;;;;;;;;;;;;;;;15.25;100.00;99817.78;5089999;28;19953;-74
2023/08/01 01:33:42;;;;;;;;;;;;;;;15.20;100.00;99818.03;5078500;28;19999;-75
2023/08/01 01:36:08;;;;;;;;;;;;;;;15.19;100.00;99819.00;5085605;28;19916;-74
2023/08/01 01:38:34;;;;;;;;;;;;;;;15.18;100.00;99817.28;5081025;28;19924;-80
2023/08/01 01:40:59;;;;;;;;;;;;;;;15.17;100.00;99814.69;5069560;28;19947;-80
2023/08/01 01:43:24;;;;;;;;;;;;;;;15.16;100.00;99815.66;5071169;28;20281;-81
2023/08/01 01:45:50;;;;;;;;;;;;;;;15.14;100.00;99812.22;5069787;28;20300;-81
2023/08/01 01:48:15;;;;;;;;;;;;;;;15.13;100.00;99813.13;5069709;28;20016;-81
2023/08/01 01:50:40;;;;;;;;;;;;;;;15.12;100.00;99809.63;5070901;28;19963;-80
2023/08/01 01:53:06;;;;;;;;;;;;;;;15.14;100.00;99814.88;5069636;28;20255;-81
2023/08/01 01:55:31;;;;;;;;;;;;;;;15.12;100.00;99808.75;5052929;28;20235;-80
2023/08/01 01:57:59;;;;;;;;;;;;;;;15.09;100.00;99811.63;5069285;28;19928;-80
2023/08/01 02:00:24;;;;;;;;;;;;;;;15.06;100.00;99809.97;5069276;28;20405;-80
2023/08/01 02:02:49;;;;;;;;;;;;;;;15.07;100.00;99808.16;5069692;28;19917;-80
2023/08/01 02:05:15;;;;;;;;;;;;;;;15.03;100.00;99805.69;5070885;28;19928;-80
2023/08/01 02:07:40;;;;;;;;;;;;;;;15.01;100.00;99810.25;5069216;28;19978;-81
2023/08/01 02:10:06;;;;;;;;;;;;;;;15.01;100.00;99807.56;5069767;28;19924;-80
2023/08/01 02:12:35;;;;;;;;;;;;;;;14.97;100.00;99806.00;5052621;28;19963;-80
2023/08/01 02:15:01;;;;;;;;;;;;;;;14.94;100.00;99805.34;5069274;28;20003;-80
2023/08/01 02:17:26;;;;;;;;;;;;;;;14.94;100.00;99805.34;5052800;28;19979;-80
2023/08/01 02:19:52;;;;;;;;;;;;;;;14.95;100.00;99801.72;5069145;28;20313;-81
2023/08/01 02:22:17;;;;;;;;;;;;;;;14.94;100.00;99811.53;5069108;28;20386;-80
2023/08/01 02:24:43;;;;;;;;;;;;;;;14.91;100.00;99810.81;5069293;28;20339;-80
2023/08/01 02:27:08;;;;;;;;;;;;;;;14.93;100.00;99820.44;5069218;28;19936;-81
2023/08/01 02:29:34;;;;;;;;;;;;;;;14.91;100.00;99814.38;5070632;28;19921;-80
2023/08/01 02:31:59;;;;;;;;;;;;;;;14.92;100.00;99818.75;5068433;28;20236;-80
2023/08/01 02:34:24;;;;;;;;;;;;;;;14.90;100.00;99814.44;5069046;28;19920;-79
2023/08/01 02:36:50;;;;;;;;;;;;;;;14.91;100.00;99817.03;5068869;28;19928;-80
2023/08/01 02:39:15;;;;;;;;;;;;;;;14.86;100.00;99811.13;5052432;28;20016;-80
2023/08/01 02:41:40;;;;;;;;;;;;;;;14.87;100.00;99814.63;5052136;28;19927;-80
2023/08/01 02:44:06;;;;;;;;;;;;;;;14.83;100.00;99824.59;5069032;28;19920;-79
2023/08/01 02:46:31;;;;;;;;;;;;;;;14.84;100.00;99831.66;5068925;28;20342;-80
2023/08/01 02:48:57;;;;;;;;;;;;;;;14.81;100.00;99821.13;5068725;28;20290;-80
2023/08/01 02:51:22;;;;;;;;;;;;;;;14.79;100.00;99834.56;5070306;28;19916;-79
2023/08/01 02:53:48;;;;;;;;;;;;;;;14.80;100.00;99841.59;5068592;28;19978;-80
2023/08/01 02:56:13;;;;;;;;;;;;;;;14.81;100.00;99837.13;5068624;28;19965;-80
2023/08/01 02:58:38;;;;;;;;;;;;;;;14.77;100.00;99835.59;5068725;28;20012;-80
2023/08/01 03:01:09;;;;;;;;;;;;;;;14.77;100.00;99832.94;5052016;28;19986;-80
2023/08/01 03:03:35;;;;;;;;;;;;;;;14.76;100.00;99825.88;5068969;28;20007;-80
2023/08/01 03:06:01;;;;;;;;;;;;;;;14.74;100.00;99828.63;5070232;28;19967;-80
2023/08/01 03:08:26;;;;;;;;;;;;;;;14.72;100.00;99814.53;5070135;28;19964;-80
2023/08/01 03:10:52;;;;;;;;;;;;;;;14.73;100.00;99820.72;5069457;28;19923;-80
2023/08/01 03:13:17;;;;;;;;;;;;;;;14.68;100.00;99830.78;5068565;28;20342;-80
2023/08/01 03:15:42;;;;;;;;;;;;;;;14.65;100.00;99826.47;5068434;28;19955;-80
2023/08/01 03:18:08;;;;;;;;;;;;;;;14.64;100.00;99840.75;5070210;28;20000;-80
2023/08/01 03:20:33;;;;;;;;;;;;;;;14.66;100.00;99830.00;5052444;28;20387;-80
2023/08/01 03:22:58;;;;;;;;;;;;;;;14.65;100.00;99828.28;5072042;28;19954;-80
2023/08/01 03:25:24;;;;;;;;;;;;;;;14.65;100.00;99830.94;5072547;28;19921;-80
2023/08/01 03:27:49;;;;;;;;;;;;;;;14.62;100.00;99830.16;5072054;28;20445;-80
2023/08/01 03:30:15;;;;;;;;;;;;;;;14.62;100.00;99837.31;5074006;28;19931;-80
2023/08/01 03:32:41;;;;;;;;;;;;;;;14.60;100.00;99836.53;5052393;28;19952;-80
2023/08/01 03:35:07;;;;;;;;;;;;;;;14.61;100.00;99832.91;5073756;28;19921;-80
2023/08/01 03:37:32;;;;;;;;;;;;;;;14.63;100.00;99836.34;5071748;28;19972;-80
2023/08/01 03:39:58;;;;;;;;;;;;;;;14.63;100.00;99842.53;5073869;28;19989;-75
2023/08/01 03:42:23;;;;;;;;;;;;;;;14.59;100.00;99833.00;5071938;28;19920;-75
2023/08/01 03:44:48;;;;;;;;;;;;;;;14.60;100.00;99831.19;5073751;28;19999;-75
2023/08/01 03:47:14;;;;;;;;;;;;;;;14.62;100.00;99823.97;5072015;28;20015;-75
2023/08/01 03:49:40;;;;;;;;;;;;;;;14.62;100.00;99835.50;5072289;28;19920;-78
2023/08/01 03:52:06;;;;;;;;;;;;;;;14.61;100.00;99833.78;5071951;28;19982;-80
2023/08/01 03:54:32;;;;;;;;;;;;;;;14.61;100.00;99838.22;5055519;28;19920;-80
2023/08/01 03:56:57;;;;;;;;;;;;;;;14.60;100.00;99834.72;5071957;28;19973;-80
2023/08/01 03:59:22;;;;;;;;;;;;;;;14.63;100.00;99831.00;5055342;28;19956;-79
2023/08/01 04:01:48;;;;;;;;;;;;;;;14.60;100.00;99847.19;5073681;28;19920;-80
2023/08/01 04:04:14;;;;;;;;;;;;;;;14.59;100.00;99843.66;5071810;28;20332;-80
2023/08/01 04:06:42;;;;;;;;;;;;;;;14.61;100.00;99840.91;5055505;28;19924;-79
2023/08/01 04:09:07;;;;;;;;;;;;;;;14.61;100.00;99851.56;5071353;28;19935;-79
2023/08/01 04:11:33;;;;;;;;;;;;;;;14.61;100.00;99835.56;5071670;28;19935;-80
2023/08/01 04:13:58;;;;;;;;;;;;;;;14.63;100.00;99836.34;5055140;28;19920;-77
2023/08/01 04:16:23;;;;;;;;;;;;;;;14.63;100.00;99845.19;5073015;28;19927;-80
2023/08/01 04:18:49;;;;;;;;;;;;;;;14.64;100.00;99838.09;5038511;28;19921;-80
2023/08/01 04:21:14;;;;;;;;;;;;;;;14.64;100.00;99846.06;5071478;28;20347;-80
2023/08/01 04:23:40;;;;;;;;;;;;;;;14.66;100.00;99848.63;5073129;28;19931;-80
2023/08/01 04:26:08;;;;;;;;;;;;;;;14.67;100.00;99845.91;5072746;28;19955;-80
2023/08/01 04:28:34;;;;;;;;;;;;;;;14.66;100.00;99838.84;5071669;28;19953;-81
2023/08/01 04:30:59;;;;;;;;;;;;;;;14.66;100.00;99843.31;5072775;28;19991;-80
2023/08/01 04:33:24;;;;;;;;;;;;;;;14.69;100.00;99835.13;5069988;28;20221;-80
2023/08/01 04:35:50;;;;;;;;;;;;;;;14.71;100.00;99833.25;5072992;28;19921;-80
2023/08/01 04:38:16;;;;;;;;;;;;;;;14.71;100.00;99835.91;5072409;28;19916;-79
2023/08/01 04:40:41;;;;;;;;;;;;;;;14.72;100.00;99843.84;5072591;28;19924;-80
2023/08/01 04:43:06;;;;;;;;;;;;;;;14.73;100.00;99842.88;5054217;28;20378;-79
2023/08/01 04:45:32;;;;;;;;;;;;;;;14.76;100.00;99839.19;5072718;28;19928;-79
2023/08/01 04:47:57;;;;;;;;;;;;;;;14.78;100.00;99845.31;5083726;28;20330;-80
2023/08/01 04:50:22;;;;;;;;;;;;;;;14.84;100.00;99847.66;5075052;28;19920;-80
2023/08/01 04:52:48;;;;;;;;;;;;;;;14.89;100.00;99853.59;5070802;28;20069;-80
2023/08/01 04:55:14;;;;;;;;;;;;;;;14.87;100.00;99857.28;5070924;28;20017;-79
2023/08/01 04:57:39;;;;;;;;;;;;;;;14.88;100.00;99870.50;5070922;28;19920;-79
2023/08/01 05:00:05;;;;;;;;;;;;;;;14.91;100.00;99848.16;5054286;28;19921;-79
2023/08/01 05:02:30;;;;;;;;;;;;;;;14.91;100.00;99856.13;5070862;28;20397;-79
2023/08/01 05:04:56;;;;;;;;;;;;;;;14.95;100.00;99863.03;5070762;28;19916;-79
2023/08/01 05:07:21;;;;;;;;;;;;;;;14.96;100.00;99860.28;5071776;28;19920;-79
2023/08/01 05:09:47;;;;;;;;;;;;;;;14.97;100.00;99859.34;5062687;28;19920;-79
2023/08/01 05:12:12;;;;;;;;;;;;;;;14.97;100.00;99851.34;5066701;28;19921;-79
2023/08/01 05:14:38;;;;;;;;;;;;;;;14.95;100.00;99853.22;5071916;28;19931;-79
2023/08/01 05:17:03;;;;;;;;;;;;;;;14.97;100.00;99861.16;5070443;28;19920;-79
2023/08/01 05:19:29;;;;;;;;;;;;;;;14.96;100.00;99862.06;5071825;28;19983;-79
2023/08/01 05:21:55;;;;;;;;;;;;;;;14.97;100.00;99850.47;5070208;28;20316;-79
2023/08/01 05:24:20;;;;;;;;;;;;;;;14.97;100.00;99859.34;5071541;28;20121;-79
2023/08/01 05:26:45;;;;;;;;;;;;;;;14.98;100.00;99855.72;5071360;28;19955;-79
2023/08/01 05:29:11;;;;;;;;;;;;;;;15.02;100.00;99854.59;5071480;28;20027;-79
2023/08/01 05:31:36;;;;;;;;;;;;;;;15.04;100.00;99862.53;5069604;28;19917;-79
2023/08/01 05:34:01;;;;;;;;;;;;;;;15.03;100.00;99863.47;5069577;28;20312;-79
2023/08/01 05:36:27;;;;;;;;;;;;;;;14.98;100.00;99854.84;5069806;28;20338;-79
2023/08/01 05:38:52;;;;;;;;;;;;;;;14.99;100.00;99860.13;5069956;28;19916;-78
2023/08/01 05:41:18;;;;;;;;;;;;;;;15.03;100.00;99866.13;5071099;28;19922;-78
2023/08/01 05:43:43;;;;;;;;;;;;;;;15.02;100.00;99865.28;5070951;28;20255;-79
2023/08/01 05:46:08;;;;;;;;;;;;;;;15.03;100.00;99861.69;5052398;28;20340;-79
2023/08/01 05:48:34;;;;;;;;;;;;;;;15.04;100.00;99867.88;5071054;28;20283;-78
2023/08/01 05:50:59;;;;;;;;;;;;;;;15.07;100.00;99874.84;5070980;28;19920;-79
2023/08/01 05:53:24;;;;;;;;;;;;;;;15.07;100.00;99873.03;5071001;28;19947;-78
2023/08/01 05:55:50;;;;;;;;;;;;;;;15.05;100.00;99881.09;5070952;28;20398;-78
2023/08/01 05:58:15;;;;;;;;;;;;;;;15.10;100.00;99874.66;5069419;28;19955;-79
2023/08/01 06:00:41;;;;;;;;;;;;;;;15.11;100.00;99884.34;5070806;28;20464;-79
2023/08/01 06:03:06;;;;;;;;;;;;;;;15.12;100.00;99881.63;5069463;28;19981;-79
2023/08/01 06:05:31;;;;;;;;;;;;;;;15.19;100.00;99892.81;5070757;28;19978;-79
2023/08/01 06:07:57;;;;;;;;;;;;;;;15.20;100.00;99890.03;5069207;28;20386;-79
2023/08/01 06:10:22;;;;;;;;;;;;;;;15.25;100.00;99879.13;5055277;28;20248;-78
2023/08/01 06:12:47;;;;;;;;;;;;;;;15.30;100.00;99885.03;5070306;28;19943;-78
2023/08/01 06:15:13;;;;;;;;;;;;;;;15.37;100.00;99883.75;5070483;28;19968;-78
2023/08/01 06:17:38;;;;;;;;;;;;;;;15.40;100.00;99885.38;5070430;28;19927;-79
2023/08/01 06:20:04;;;;;;;;;;;;;;;15.41;100.00;99897.78;5070301;28;19920;-79
2023/08/01 06:22:30;;;;;;;;;;;;;;;15.48;100.00;99892.03;5070232;28;20365;-78
2023/08/01 06:24:55;;;;;;;;;;;;;;;15.49;100.00;99885.72;5068909;28;20042;-79
2023/08/01 06:27:20;;;;;;;;;;;;;;;15.52;100.00;99876.69;5070108;28;20347;-79
2023/08/01 06:29:46;;;;;;;;;;;;;;;15.53;100.00;99886.41;5070261;28;19920;-78
2023/08/01 06:32:11;;;;;;;;;;;;;;;15.59;100.00;99880.72;5068172;28;19999;-79
2023/08/01 06:34:36;;;;;;;;;;;;;;;15.66;100.00;99882.09;5068687;28;19920;-78
2023/08/01 06:37:03;;;;;;;;;;;;;;;15.69;100.00;99887.28;5070048;28;20096;-78
2023/08/01 06:39:29;;;;;;;;;;;;;;;15.74;100.00;99884.34;5069966;28;19924;-78
2023/08/01 06:41:54;;;;;;;;;;;;;;;15.78;100.00;99888.56;5068563;28;20320;-78
2023/08/01 06:44:20;;;;;;;;;;;;;;;15.87;100.00;99885.34;5070040;28;19960;-75
2023/08/01 06:46:45;;;;;;;;;;;;;;;15.90;100.00;99903.84;5053197;28;19931;-74
2023/08/01 06:49:10;;;;;;;;;;;;;;;15.96;100.00;99899.09;5081412;28;19931;-74
2023/08/01 06:51:36;;;;;;;;;;;;;;;16.01;100.00;99905.88;5069871;28;19938;-75
2023/08/01 06:54:01;;;;;;;;;;;;;;;16.06;100.00;99905.63;5068631;28;19963;-75
2023/08/01 06:56:26;;;;;;;;;;;;;;;16.10;100.00;99908.00;5070720;28;19923;-75
2023/08/01 06:58:52;;;;;;;;;;;;;;;16.20;100.00;99908.31;5074030;28;19924;-74
2023/08/01 07:01:17;;;;;;;;;;;;;;;16.33;100.00;99913.78;5055961;28;19920;-74
2023/08/01 07:03:43;;;;;;;;;;;;;;;16.39;100.00;99912.53;5072616;28;19920;-74
2023/08/01 07:06:08;;;;;;;;;;;;;;;16.38;100.00;99918.84;5072632;28;19920;-74
2023/08/01 07:08:33;;;;;;;;;;;;;;;16.40;100.00;99908.94;5072550;28;19925;-74
2023/08/01 07:10:59;;;;;;;;;;;;;;;16.39;100.00;99909.88;5073202;28;20347;-74
2023/08/01 07:13:25;;;;;;;;;;;;;;;16.42;100.00;99921.25;5074088;28;19942;-74
2023/08/01 07:15:51;;;;;;;;;;;;;;;16.45;100.00;99913.03;5072228;28;19924;-73
2023/08/01 07:18:16;;;;;;;;;;;;;;;16.43;100.00;99914.09;5073978;28;19920;-74
2023/08/01 07:20:41;;;;;;;;;;;;;;;16.38;100.00;99913.50;5071859;28;19988;-74
2023/08/01 07:23:07;;;;;;;;;;;;;;;16.36;100.00;99908.25;5075894;28;19920;-74
2023/08/01 07:25:32;;;;;;;;;;;;;;;16.34;100.00;99905.69;5079639;28;19928;-74
2023/08/01 07:27:58;;;;;;;;;;;;;;;16.35;100.00;99906.53;5078219;28;19928;-74
2023/08/01 07:30:23;;;;;;;;;;;;;;;16.41;100.00;99906.16;5080810;28;19984;-74
2023/08/01 07:32:48;;;;;;;;;;;;;;;16.40;100.00;99906.25;5074830;28;19924;-74
2023/08/01 07:35:14;;;;;;;;;;;;;;;16.40;100.00;99903.59;5079602;28;20023;-74
2023/08/01 07:37:39;;;;;;;;;;;;;;;16.44;100.00;99907.78;5083000;28;20371;-74
2023/08/01 07:40:05;;;;;;;;;;;;;;;16.64;100.00;99917.25;5080905;28;19920;-74
2023/08/01 07:42:31;;;;;;;;;;;;;;;16.57;100.00;99919.44;5070535;28;20007;-74
2023/08/01 07:44:56;;;;;;;;;;;;;;;16.58;100.00;99907.78;5086638;28;19984;-74
2023/08/01 07:47:23;;;;;;;;;;;;;;;16.57;100.00;99914.09;5084375;28;20340;-74
2023/08/01 07:49:48;;;;;;;;;;;;;;;16.58;100.00;99920.31;5054144;28;19943;-75
2023/08/01 07:52:13;;;;;;;;;;;;;;;16.55;100.00;99913.34;5076586;28;19921;-74
2023/08/01 07:54:39;;;;;;;;;;;;;;;16.59;100.00;99914.00;5076264;28;19926;-74
2023/08/01 07:57:05;;;;;;;;;;;;;;;16.52;100.00;99921.56;5079705;28;20007;-75
2023/08/01 07:59:30;;;;;;;;;;;;;;;16.53;100.00;99910.75;5079140;28;20320;-75
2023/08/01 08:01:55;;;;;;;;;;;;;;;16.64;100.00;99920.78;5081452;28;19987;-74
2023/08/01 08:04:21;;;;;;;;;;;;;;;16.74;100.00;99910.38;5078273;28;19986;-75
2023/08/01 08:06:46;;;;;;;;;;;;;;;16.74;100.00;99910.38;5083917;28;20391;-74
2023/08/01 08:09:12;;;;;;;;;;;;;;;16.92;100.00;99916.44;5081420;28;19943;-75
2023/08/01 08:11:37;;;;;;;;;;;;;;;17.09;100.00;99912.69;5085820;28;20346;-75
2023/08/01 08:14:03;;;;;;;;;;;;;;;17.22;100.00;99910.94;5068764;28;19920;-75
2023/08/01 08:16:28;;;;;;;;;;;;;;;17.28;100.00;99921.22;5089920;28;19920;-74
2023/08/01 08:18:54;;;;;;;;;;;;;;;17.28;100.00;99915.03;5091482;28;19941;-74
2023/08/01 08:21:19;;;;;;;;;;;;;;;17.30;100.00;99932.69;5086163;28;19921;-74
2023/08/01 08:23:44;;;;;;;;;;;;;;;17.31;100.00;99931.75;5074186;28;20347;-74
2023/08/01 08:26:10;;;;;;;;;;;;;;;17.30;100.00;99929.16;5077523;28;19920;-74
2023/08/01 08:28:35;;;;;;;;;;;;;;;17.37;100.00;99922.47;5076404;28;20324;-73
2023/08/01 08:31:04;;;;;;;;;;;;;;;17.50;100.00;99935.91;5081954;28;19920;-74
2023/08/01 08:33:30;;;;;;;;;;;;;;;17.50;98.78;99933.25;5055477;28;20020;-74
2023/08/01 08:35:55;;;;;;;;;;;;;;;17.46;99.46;99934.38;5079779;28;20092;-74
2023/08/01 08:38:20;;;;;;;;;;;;;;;17.37;99.31;99933.19;5075996;28;20345;-74
2023/08/01 08:40:57;;;;;;;;;;;;;;;17.26;100.00;99939.22;5081267;28;20045;-74
2023/08/01 08:43:23;;;;;;;;;;;;;;;17.16;100.00;99946.09;5080340;28;19916;-74
2023/08/01 08:45:48;;;;;;;;;;;;;;;17.10;100.00;99944.69;5087202;28;20015;-74
2023/08/01 08:48:17;;;;;;;;;;;;;;;17.02;100.00;99940.78;5088066;28;19924;-74
2023/08/01 08:50:44;;;;;;;;;;;;;;;17.09;100.00;99945.66;5073325;28;20263;-75
2023/08/01 08:53:12;;;;;;;;;;;;;;;16.98;100.00;99951.66;5092033;28;20446;-75
2023/08/01 08:55:39;;;;;;;;;;;;;;;17.08;100.00;99959.09;5073214;28;20007;-74
2023/08/01 08:58:05;;;;;;;;;;;;;;;17.10;100.00;99947.34;5073281;28;20235;-74
2023/08/01 09:00:30;;;;;;;;;;;;;;;17.19;100.00;99941.44;5070299;28;19920;-74
2023/08/01 09:02:55;;;;;;;;;;;;;;;17.23;100.00;99949.25;5071853;28;19951;-74
2023/08/01 09:05:26;;;;;;;;;;;;;;;17.23;100.00;99951.94;5070199;28;19935;-74
2023/08/01 09:07:54;;;;;;;;;;;;;;;17.17;100.00;99954.03;5071559;28;19974;-74
2023/08/01 09:10:20;;;;;;;;;;;;;;;17.16;100.00;99956.78;5069860;28;19927;-74
2023/08/01 09:12:45;;;;;;;;;;;;;;;17.11;100.00;99957.13;5053067;28;20287;-74
2023/08/01 09:15:12;;;;;;;;;;;;;;;17.00;100.00;99964.09;5071422;28;19948;-76
2023/08/01 09:17:47;;;;;;;;;;;;;;;16.85;100.00;99956.06;5071672;28;19974;-76
2023/08/01 09:20:12;;;;;;;;;;;;;;;16.72;100.00;99960.41;5064912;28;19964;-75
2023/08/01 09:22:41;;;;;;;;;;;;;;;16.67;100.00;99958.03;5065470;28;20006;-76
2023/08/01 09:25:07;;;;;;;;;;;;;;;16.59;100.00;99965.63;5065732;28;19954;-75
2023/08/01 09:27:32;;;;;;;;;;;;;;;16.53;100.00;99964.19;5060636;28;20081;-76
2023/08/01 09:30:08;;;;;;;;;;;;;;;16.58;100.00;99966.59;5053571;28;19923;-76
2023/08/01 09:32:34;;;;;;;;;;;;;;;16.60;100.00;99966.50;5068898;28;20363;-76
2023/08/01 09:35:00;;;;;;;;;;;;;;;16.71;100.00;99970.22;5062204;28;19920;-76
2023/08/01 09:37:25;;;;;;;;;;;;;;;16.73;100.00;99973.66;5074039;28;20235;-75
2023/08/01 09:39:55;;;;;;;;;;;;;;;16.77;100.00;99972.53;5076222;28;19916;-76
2023/08/01 09:42:20;;;;;;;;;;;;;;;16.80;100.00;99974.19;5084897;28;19939;-75
2023/08/01 09:44:46;;;;;;;;;;;;;;;16.87;100.00;99980.91;5082885;28;19921;-75
2023/08/01 09:47:12;;;;;;;;;;;;;;;16.93;100.00;99983.16;5081084;28;20030;-75
2023/08/01 09:49:47;;;;;;;;;;;;;;;16.95;100.00;99989.28;5080585;28;20287;-74
2023/08/01 09:52:12;;;;;;;;;;;;;;;16.98;100.00;99988.25;5082403;28;20383;-75
2023/08/01 09:54:37;;;;;;;;;;;;;;;17.10;98.66;99987.47;5070689;28;19927;-75
2023/08/01 09:57:04;;;;;;;;;;;;;;;17.15;95.91;99995.22;5069366;28;20416;-76
2023/08/01 09:59:30;;;;;;;;;;;;;;;17.11;94.96;99991.88;5071168;28;19936;-74
2023/08/01 10:01:56;;;;;;;;;;;;;;;17.10;92.43;99989.31;5070610;28;19916;-74
2023/08/01 10:04:29;;;;;;;;;;;;;;;17.08;96.09;99984.03;5069573;28;19960;-74
2023/08/01 10:06:59;;;;;;;;;;;;;;;17.32;95.36;99989.66;5069464;28;20255;-74
2023/08/01 10:09:24;;;;;;;;;;;;;;;17.55;96.84;99995.38;5070872;28;19991;-75
2023/08/01 10:11:51;;;;;;;;;;;;;;;17.75;96.17;100000.28;5070391;28;20262;-74
2023/08/01 10:14:17;;;;;;;;;;;;;;;17.94;94.08;99996.44;5069209;28;19917;-74
2023/08/01 10:16:43;;;;;;;;;;;;;;;17.99;92.98;99994.31;5069402;28;20015;-74
2023/08/01 10:19:09;;;;;;;;;;;;;;;18.11;93.14;99992.66;5070738;28;20012;-74
2023/08/01 10:21:35;;;;;;;;;;;;;;;18.32;92.62;99991.19;5070689;28;20331;-74
2023/08/01 10:24:01;;;;;;;;;;;;;;;18.49;91.18;99987.38;5082645;28;20022;-74
2023/08/01 10:26:26;;;;;;;;;;;;;;;18.66;92.67;99997.78;5070635;28;20358;-74
2023/08/01 10:28:52;;;;;;;;;;;;;;;18.81;91.06;100003.09;5070649;28;20011;-74
2023/08/01 10:31:18;;;;;;;;;;;;;;;18.72;88.09;100006.38;5066176;28;20084;-74
2023/08/01 10:33:44;;;;;;;;;;;;;;;18.49;89.04;100008.81;5066130;28;20336;-74
2023/08/01 10:36:14;;;;;;;;;;;;;;;18.43;89.93;100007.41;5073458;28;19920;-74
2023/08/01 10:38:52;;;;;;;;;;;;;;;18.40;90.88;100004.09;5070537;28;19943;-74
2023/08/01 10:41:20;;;;;;;;;;;;;;;18.35;90.43;100000.88;5066910;28;19963;-74
2023/08/01 10:43:45;;;;;;;;;;;;;;;18.14;89.95;100017.41;5070768;28;20433;-74
2023/08/01 10:46:11;;;;;;;;;;;;;;;18.15;92.10;100012.91;5070273;28;19924;-74
2023/08/01 10:48:47;;;;;;;;;;;;;;;18.17;90.03;100022.56;5069927;28;20397;-75
2023/08/01 10:51:12;;;;;;;;;;;;;;;18.26;92.04;100016.59;5070410;28;19948;-74
2023/08/01 10:53:39;;;;;;;;;;;;;;;18.61;90.44;100004.44;5069475;28;19955;-74
2023/08/01 10:56:04;;;;;;;;;;;;;;;18.83;90.09;100003.84;5069566;28;19925;-73
2023/08/01 10:58:29;;;;;;;;;;;;;;;18.88;87.94;100002.56;5087402;28;19920;-74
2023/08/01 11:00:58;;;;;;;;;;;;;;;18.81;87.46;100000.41;5070440;28;20024;-74
2023/08/01 11:03:33;;;;;;;;;;;;;;;18.73;87.37;100014.31;5068545;28;19921;-74
2023/08/01 11:05:59;;;;;;;;;;;;;;;18.65;89.63;100016.69;5070261;28;20264;-74
2023/08/01 11:08:33;;;;;;;;;;;;;;;18.82;92.07;100021.78;5063678;28;19970;-74
2023/08/01 11:10:58;;;;;;;;;;;;;;;19.24;90.83;100022.41;5062065;28;19924;-73
2023/08/01 11:13:24;;;;;;;;;;;;;;;19.34;87.35;100018.09;5062718;28;19925;-74
2023/08/01 11:15:49;;;;;;;;;;;;;;;19.27;86.34;100026.72;5067516;28;19943;-74
2023/08/01 11:18:14;;;;;;;;;;;;;;;19.11;84.55;100027.81;5068076;28;19921;-74
2023/08/01 11:20:41;;;;;;;;;;;;;;;19.00;85.23;100030.38;5069906;28;19920;-74
2023/08/01 11:23:06;;;;;;;;;;;;;;;18.99;84.80;100022.41;5070312;28;20009;-74
2023/08/01 11:25:39;;;;;;;;;;;;;;;19.00;83.92;100035.72;5070164;28;20331;-73
2023/08/01 11:28:08;;;;;;;;;;;;;;;19.11;82.93;100040.34;5069534;28;19936;-74
2023/08/01 11:30:34;;;;;;;;;;;;;;;19.32;80.27;100038.84;5070204;28;19916;-74
2023/08/01 11:33:00;;;;;;;;;;;;;;;19.39;79.89;100036.56;5064142;28;19923;-74
2023/08/01 11:35:25;;;;;;;;;;;;;;;19.32;80.39;100040.66;5061513;28;19925;-82
2023/08/01 11:37:51;;;;;;;;;;;;;;;19.19;81.90;100043.38;5064437;28;19989;-81
2023/08/01 11:40:17;;;;;;;;;;;;;;;19.07;82.10;100049.59;5070161;28;20286;-81
2023/08/01 11:42:42;;;;;;;;;;;;;;;18.92;82.24;100054.19;5058250;28;19921;-81
2023/08/01 11:45:11;;;;;;;;;;;;;;;18.96;77.22;100060.19;5071024;28;19920;-81
2023/08/01 11:47:36;;;;;;;;;;;;;;;18.84;75.33;100051.16;5067195;28;20381;-80
2023/08/01 11:50:02;;;;;;;;;;;;;;;18.74;72.94;100058.09;5071744;28;19916;-81
2023/08/01 11:52:28;;;;;;;;;;;;;;;18.69;70.24;100059.28;5073387;28;20432;-80
2023/08/01 11:54:54;;;;;;;;;;;;;;;18.64;72.81;100056.06;5073454;28;19916;-80
2023/08/01 11:57:23;;;;;;;;;;;;;;;18.75;73.30;100062.50;5060019;28;19920;-81
2023/08/01 11:59:54;;;;;;;;;;;;;;;18.64;76.52;100058.75;5073592;28;19996;-81
2023/08/01 12:02:22;;;;;;;;;;;;;;;18.82;74.74;100063.84;5073034;28;19962;-81
2023/08/01 12:04:48;;;;;;;;;;;;;;;18.89;74.78;100067.78;5073389;28;20268;-81
2023/08/01 12:07:14;;;;;;;;;;;;;;;18.88;75.75;100071.47;5071531;28;19920;-79
2023/08/01 12:09:40;;;;;;;;;;;;;;;18.85;76.54;100071.69;5070916;28;20000;-80
2023/08/01 12:12:05;;;;;;;;;;;;;;;18.80;76.54;100082.72;5059917;28;19997;-80
2023/08/01 12:14:31;;;;;;;;;;;;;;;18.79;76.97;100088.16;5068249;28;20226;-80
2023/08/01 12:16:56;;;;;;;;;;;;;;;18.82;76.66;100082.63;5065091;28;19916;-81
2023/08/01 12:19:22;;;;;;;;;;;;;;;18.85;75.46;100091.31;5071654;28;19984;-82
2023/08/01 12:21:48;;;;;;;;;;;;;;;18.68;74.77;100091.56;5086179;28;20031;-81
2023/08/01 12:24:13;;;;;;;;;;;;;;;18.61;75.05;100098.28;5072757;28;20324;-80
2023/08/01 12:26:38;;;;;;;;;;;;;;;18.69;75.41;100094.16;5075044;28;20106;-79
2023/08/01 12:29:04;;;;;;;;;;;;;;;18.97;76.05;100088.75;5071027;28;19921;-79
2023/08/01 12:31:29;;;;;;;;;;;;;;;19.30;74.53;100081.03;5073276;28;19920;-78